Time;durP1;ratioP1;P1;durP2;ratioP2;P2;SDS_P1;SDS_P2;PMS_P1;PMS_P2;Temp;Humidity;BMP_temperature;BMP_pressure;BME280_temperature;BME280_humidity;BME280_pressure;Samples;Min_cycle;Max_cycle;Signal;HPM_P1;HPM_P2
2023/01/25 00:01:54;;;;;;;27.53;17.47;;;3.20;99.90;;;;;;4805070;29;20196;-88
2023/01/25 00:04:21;;;;;;;32.05;19.15;;;3.20;99.90;;;;;;4804846;29;20771;-89
2023/01/25 00:06:47;;;;;;;27.98;17.90;;;3.20;99.90;;;;;;4809850;29;20193;-90
2023/01/25 00:09:15;;;;;;;27.75;18.45;;;3.30;99.90;;;;;;4805592;29;20213;-89
2023/01/25 00:11:40;;;;;;;26.70;17.70;;;3.30;99.90;;;;;;4806113;29;20570;-88
2023/01/25 00:14:06;;;;;;;30.70;19.97;;;3.30;99.90;;;;;;4814328;29;20209;-90
2023/01/25 00:16:32;;;;;;;30.10;20.20;;;3.30;69.30;;;;;;4811552;29;20462;-89
2023/01/25 00:18:58;;;;;;;29.07;19.83;;;3.20;99.90;;;;;;4806966;29;20662;-89
2023/01/25 00:21:25;;;;;;;29.60;20.47;;;3.20;99.90;;;;;;4822903;29;20193;-89
2023/01/25 00:23:54;;;;;;;29.33;20.63;;;3.20;99.90;;;;;;4818944;29;20240;-89
2023/01/25 00:26:20;;;;;;;29.00;19.05;;;3.20;99.90;;;;;;4822354;29;20182;-89
2023/01/25 00:28:53;;;;;;;33.30;20.80;;;3.20;99.90;;;;;;4808235;29;20362;-89
2023/01/25 00:31:33;;;;;;;27.92;17.92;;;3.20;99.90;;;;;;4822428;29;20502;-89
2023/01/25 00:34:23;;;;;;;29.13;18.00;;;3.20;99.90;;;;;;4809555;29;20213;-89
2023/01/25 00:36:53;;;;;;;31.70;19.92;;;3.20;99.90;;;;;;4825956;29;20244;-90
2023/01/25 00:39:19;;;;;;;35.42;22.30;;;3.20;99.90;;;;;;4819613;29;20195;-89
2023/01/25 00:41:45;;;;;;;28.37;18.90;;;3.20;99.90;;;;;;4820728;29;20216;-89
2023/01/25 00:44:11;;;;;;;31.00;19.33;;;3.20;99.90;;;;;;4821805;29;20528;-90
2023/01/25 00:46:36;;;;;;;35.63;21.03;;;3.20;99.90;;;;;;4820269;29;20193;-89
2023/01/25 00:49:02;;;;;;;30.00;20.63;;;3.20;99.90;;;;;;4816774;29;20296;-89
2023/01/25 00:51:27;;;;;;;31.70;19.07;;;3.30;99.90;;;;;;4820937;29;20326;-89
2023/01/25 00:53:53;;;;;;;27.70;17.03;;;3.30;99.90;;;;;;4806009;29;20636;-89
2023/01/25 00:56:21;;;;;;;29.27;18.37;;;3.30;99.90;;;;;;4813982;29;20189;-90
2023/01/25 00:58:47;;;;;;;30.73;18.60;;;3.30;99.90;;;;;;4820311;29;20570;-89
2023/01/25 01:01:13;;;;;;;25.47;16.83;;;3.30;99.90;;;;;;4821765;29;20272;-89
2023/01/25 01:03:39;;;;;;;29.87;18.33;;;3.40;99.90;;;;;;4821584;29;20278;-90
2023/01/25 01:06:07;;;;;;;30.40;18.50;;;3.40;99.90;;;;;;4822688;29;20201;-90
2023/01/25 01:08:35;;;;;;;31.38;20.02;;;3.50;99.90;;;;;;4815038;29;20571;-89
2023/01/25 01:11:03;;;;;;;29.52;18.73;;;3.40;99.90;;;;;;4812860;29;20193;-90
2023/01/25 01:13:29;;;;;;;32.80;19.35;;;3.40;99.90;;;;;;4803858;29;20213;-89
2023/01/25 01:15:55;;;;;;;31.77;19.70;;;3.30;99.90;;;;;;4811988;29;20189;-90
2023/01/25 01:18:21;;;;;;;25.15;17.52;;;3.30;99.90;;;;;;4819314;29;20521;-89
2023/01/25 01:20:49;;;;;;;27.20;16.77;;;3.20;99.90;;;;;;4814058;29;20206;-88
2023/01/25 01:23:14;;;;;;;31.02;19.42;;;3.30;99.90;;;;;;4810967;29;20699;-88
2023/01/25 01:25:40;;;;;;;30.93;20.17;;;3.30;99.90;;;;;;4819002;29;20221;-89
2023/01/25 01:28:05;;;;;;;27.70;17.67;;;3.30;99.90;;;;;;4810886;29;20206;-90
2023/01/25 01:30:31;;;;;;;29.27;18.67;;;3.30;99.90;;;;;;4809841;29;20182;-90
2023/01/25 01:32:56;;;;;;;32.40;19.70;;;3.30;99.90;;;;;;4814448;29;20205;-90
2023/01/25 01:35:22;;;;;;;34.40;21.50;;;3.30;99.90;;;;;;4822027;29;20202;-89
2023/01/25 01:37:47;;;;;;;31.20;20.23;;;3.30;99.90;;;;;;4820131;29;20197;-90
2023/01/25 01:40:14;;;;;;;29.87;19.37;;;3.30;99.90;;;;;;4817967;29;20659;-90
2023/01/25 01:43:00;;;;;;;31.90;21.05;;;3.30;99.90;;;;;;4813676;29;20288;-90
2023/01/25 01:45:48;;;;;;;33.15;20.00;;;3.30;99.90;;;;;;4807562;29;20246;-89
2023/01/25 01:48:34;;;;;;;23.88;16.20;;;3.40;1.00;;;;;;4803483;29;20229;-89
2023/01/25 01:51:15;;;;;;;31.75;19.25;;;3.40;1.00;;;;;;4812943;29;20189;-90
2023/01/25 01:53:45;;;;;;;34.95;19.67;;;3.40;1.00;;;;;;4821525;29;20657;-89
2023/01/25 01:56:18;;;;;;;29.30;18.70;;;3.30;99.90;;;;;;4819535;29;20611;-90
2023/01/25 01:58:45;;;;;;;32.08;19.55;;;3.20;99.90;;;;;;4822177;29;20991;-89
2023/01/25 02:01:11;;;;;;;31.80;20.92;;;3.20;1.00;;;;;;4808809;29;20202;-90
2023/01/25 02:03:38;;;;;;;29.45;19.17;;;3.20;1.00;;;;;;4818969;29;20308;-90
2023/01/25 02:06:12;;;;;;;35.17;20.77;;;3.20;1.00;;;;;;4823882;29;20201;-88
2023/01/25 02:08:39;;;;;;;34.03;21.13;;;3.20;1.00;;;;;;4805016;29;20598;-89
2023/01/25 02:11:06;;;;;;;35.15;21.10;;;3.10;1.00;;;;;;4823318;29;20182;-90
2023/01/25 02:13:34;;;;;;;33.05;20.67;;;3.10;1.00;;;;;;4813816;29;20300;-89
2023/01/25 02:16:00;;;;;;;27.70;18.10;;;3.10;1.00;;;;;;4812788;29;20242;-89
2023/01/25 02:18:26;;;;;;;31.58;19.77;;;3.10;7.70;;;;;;4814771;29;20208;-89
2023/01/25 02:20:55;;;;;;;33.50;20.83;;;3.10;30.30;;;;;;4823309;29;20186;-89
2023/01/25 02:23:35;;;;;;;31.63;21.70;;;3.10;1.00;;;;;;4823669;29;20269;-89
2023/01/25 02:26:04;;;;;;;33.45;21.05;;;3.10;85.20;;;;;;4805151;29;20224;-89
2023/01/25 02:28:36;;;;;;;34.80;21.90;;;3.10;90.90;;;;;;4812670;29;20304;-90
2023/01/25 02:31:02;;;;;;;31.60;18.75;;;3.20;99.90;;;;;;4836022;29;20254;-89
2023/01/25 02:33:28;;;;;;;26.30;18.10;;;3.10;99.90;;;;;;4844925;29;20214;-89
2023/01/25 02:36:15;;;;;;;28.50;18.10;;;3.10;99.90;;;;;;4845650;29;20289;-89
2023/01/25 02:39:02;;;;;;;31.88;18.33;;;3.10;99.90;;;;;;4833212;29;20194;-90
2023/01/25 02:41:39;;;;;;;30.33;18.95;;;3.10;99.90;;;;;;4823413;29;20210;-89
2023/01/25 02:44:12;;;;;;;33.83;19.60;;;3.20;99.90;;;;;;4826477;29;20221;-89
2023/01/25 02:46:39;;;;;;;29.95;18.23;;;3.20;99.90;;;;;;4823776;29;20205;-88
2023/01/25 02:49:09;;;;;;;29.20;18.02;;;3.20;99.90;;;;;;4820173;29;20224;-90
2023/01/25 02:51:38;;;;;;;30.27;18.63;;;3.20;99.90;;;;;;4823296;29;20667;-90
2023/01/25 02:54:05;;;;;;;36.95;21.38;;;3.10;99.90;;;;;;4823841;29;20205;-88
2023/01/25 02:56:32;;;;;;;32.03;18.55;;;3.10;99.90;;;;;;4820161;29;20833;-89
2023/01/25 02:58:57;;;;;;;32.78;21.23;;;3.10;99.90;;;;;;4822848;29;20619;-89
2023/01/25 03:01:23;;;;;;;31.03;19.73;;;3.10;1.00;;;;;;4807126;29;20338;-90
2023/01/25 03:03:48;;;;;;;42.70;18.90;;;3.20;1.00;;;;;;4813042;29;20251;-89
2023/01/25 03:06:14;;;;;;;30.03;17.67;;;3.20;99.90;;;;;;4816470;29;20662;-89
2023/01/25 03:08:40;;;;;;;31.47;19.60;;;3.10;99.90;;;;;;4815780;29;20212;-90
2023/01/25 03:11:06;;;;;;;35.50;21.00;;;3.10;99.90;;;;;;4812742;29;20447;-90
2023/01/25 03:13:33;;;;;;;36.33;20.63;;;3.00;1.00;;;;;;4825422;29;20608;-89
2023/01/25 03:16:01;;;;;;;31.95;20.75;;;2.90;1.00;;;;;;4803805;29;20190;-89
2023/01/25 03:18:27;;;;;;;29.73;18.65;;;2.80;31.60;;;;;;4823240;29;20209;-89
2023/01/25 03:20:53;;;;;;;34.20;19.23;;;2.80;99.90;;;;;;4810483;29;20253;-89
2023/01/25 03:23:18;;;;;;;30.87;18.80;;;2.90;99.90;;;;;;4812742;29;20477;-89
2023/01/25 03:25:44;;;;;;;36.80;18.90;;;3.00;99.90;;;;;;4813590;29;20266;-88
2023/01/25 03:28:10;;;;;;;35.50;20.90;;;3.10;99.90;;;;;;4823521;29;20686;-89
2023/01/25 03:30:35;;;;;;;31.70;19.17;;;3.10;18.50;;;;;;4819528;29;20194;-88
2023/01/25 03:33:01;;;;;;;32.13;17.00;;;3.10;1.00;;;;;;4823439;29;20244;-89
2023/01/25 03:35:26;;;;;;;30.77;17.90;;;3.20;1.00;;;;;;4822873;29;20193;-89
2023/01/25 03:37:52;;;;;;;31.43;18.80;;;3.20;1.00;;;;;;4822538;29;20197;-89
2023/01/25 03:40:18;;;;;;;35.40;18.73;;;3.30;1.00;;;;;;4823098;29;20197;-89
2023/01/25 03:42:43;;;;;;;34.90;19.20;;;3.30;1.00;;;;;;4811749;29;20229;-90
2023/01/25 03:45:13;;;;;;;35.07;20.33;;;3.20;1.00;;;;;;4812065;29;20202;-89
2023/01/25 03:47:39;;;;;;;40.78;21.52;;;3.20;99.90;;;;;;4810808;29;20227;-89
2023/01/25 03:50:05;;;;;;;42.00;21.60;;;3.20;1.00;;;;;;4808019;29;20194;-89
2023/01/25 03:52:45;;;;;;;35.85;19.58;;;3.10;1.00;;;;;;4822562;29;20237;-89
2023/01/25 03:55:10;;;;;;;33.67;19.73;;;3.20;1.00;;;;;;4822869;29;20572;-90
2023/01/25 03:57:36;;;;;;;39.00;22.03;;;3.20;1.00;;;;;;4823246;29;20193;-89
2023/01/25 04:00:01;;;;;;;33.70;18.50;;;3.30;1.00;;;;;;4821040;29;20190;-89
2023/01/25 04:02:27;;;;;;;36.27;21.77;;;3.30;1.00;;;;;;4814848;29;20225;-89
2023/01/25 04:04:53;;;;;;;42.80;23.53;;;3.30;1.00;;;;;;4805716;29;20201;-90
2023/01/25 04:07:19;;;;;;;35.87;20.10;;;3.20;1.00;;;;;;4809000;29;20238;-89
2023/01/25 04:09:48;;;;;;;37.17;20.33;;;3.10;1.00;;;;;;4810811;29;20229;-89
2023/01/25 04:12:16;;;;;;;34.67;20.15;;;3.10;1.00;;;;;;4812123;29;20467;-88
2023/01/25 04:14:41;;;;;;;32.17;18.80;;;3.20;1.00;;;;;;4804792;29;20190;-89
2023/01/25 04:17:07;;;;;;;33.13;20.67;;;3.20;1.00;;;;;;4822635;29;20204;-89
2023/01/25 04:19:32;;;;;;;38.23;22.40;;;3.20;1.00;;;;;;4813178;29;20201;-89
2023/01/25 04:21:58;;;;;;;37.80;21.90;;;3.10;1.00;;;;;;4825018;29;20201;-88
2023/01/25 04:24:23;;;;;;;34.80;20.30;;;3.10;1.00;;;;;;4820313;29;20198;-89
2023/01/25 04:26:49;;;;;;;34.30;19.17;;;3.00;99.90;;;;;;4808949;29;20792;-89
2023/01/25 04:29:15;;;;;;;34.60;21.47;;;3.00;99.90;;;;;;4825147;29;20241;-88
2023/01/25 04:31:40;;;;;;;35.17;21.37;;;3.10;99.90;;;;;;4821610;29;20216;-90
2023/01/25 04:34:05;;;;;;;54.70;29.30;;;3.10;99.90;;;;;;4811752;29;20206;-89
2023/01/25 04:36:31;;;;;;;55.53;30.27;;;3.10;99.90;;;;;;4821063;29;20587;-89
2023/01/25 04:38:57;;;;;;;37.77;21.63;;;3.20;99.90;;;;;;4822503;29;20235;-90
2023/01/25 04:41:25;;;;;;;39.80;21.63;;;3.10;99.90;;;;;;4819428;29;20727;-90
2023/01/25 04:43:51;;;;;;;47.30;22.67;;;3.10;99.90;;;;;;4813325;29;20209;-89
2023/01/25 04:46:16;;;;;;;42.60;23.87;;;3.00;99.90;;;;;;4807470;29;20201;-89
2023/01/25 04:48:44;;;;;;;43.37;23.20;;;3.00;99.90;;;;;;4806419;29;20225;-89
2023/01/25 04:51:10;;;;;;;38.97;21.25;;;3.10;1.00;;;;;;4816308;29;20603;-89
2023/01/25 04:53:35;;;;;;;72.80;35.77;;;3.10;1.00;;;;;;4822273;29;20323;-89
2023/01/25 04:56:01;;;;;;;37.17;22.67;;;3.10;1.00;;;;;;4819411;29;20186;-90
2023/01/25 04:58:27;;;;;;;30.90;19.27;;;3.20;1.00;;;;;;4820657;29;20560;-89
2023/01/25 05:00:53;;;;;;;36.23;20.63;;;3.20;99.90;;;;;;4799188;29;20189;-89
2023/01/25 05:03:18;;;;;;;32.58;19.75;;;3.20;99.90;;;;;;4814357;29;20701;-90
2023/01/25 05:05:46;;;;;;;34.53;19.90;;;3.20;99.90;;;;;;4809359;29;20248;-90
2023/01/25 05:08:11;;;;;;;44.08;20.58;;;3.30;99.90;;;;;;4820614;29;20224;-89
2023/01/25 05:10:37;;;;;;;30.47;18.97;;;3.30;99.90;;;;;;4810431;29;20217;-89
2023/01/25 05:13:04;;;;;;;35.77;22.20;;;3.30;99.90;;;;;;4821772;29;20220;-89
2023/01/25 05:15:32;;;;;;;33.58;19.55;;;3.30;99.90;;;;;;4820184;29;20695;-88
2023/01/25 05:17:58;;;;;;;34.70;19.98;;;3.30;99.90;;;;;;4802796;29;20674;-90
2023/01/25 05:20:23;;;;;;;56.77;29.63;;;3.30;99.90;;;;;;4806430;29;20211;-89
2023/01/25 05:22:49;;;;;;;34.40;21.20;;;3.30;99.90;;;;;;4821014;29;20221;-90
2023/01/25 05:28:01;;;;;;;34.67;21.70;;;3.30;91.70;;;;;;4824106;29;20229;-90
2023/01/25 05:30:26;;;;;;;33.47;21.52;;;3.30;99.90;;;;;;4820153;29;20189;-90
2023/01/25 05:32:52;;;;;;;42.87;22.40;;;3.20;99.90;;;;;;4823486;29;20225;-89
2023/01/25 05:35:17;;;;;;;37.20;22.70;;;3.20;99.90;;;;;;4824450;29;20200;-90
2023/01/25 05:37:43;;;;;;;35.43;20.20;;;3.10;99.90;;;;;;4822667;29;20689;-89
2023/01/25 05:40:09;;;;;;;44.33;26.67;;;3.10;1.00;;;;;;4825004;29;20276;-89
2023/01/25 05:42:40;;;;;;;39.97;23.02;;;3.10;1.00;;;;;;4823603;29;20689;-89
2023/01/25 05:45:07;;;;;;;52.30;30.17;;;3.10;1.00;;;;;;4808300;29;20213;-89
2023/01/25 05:47:33;;;;;;;37.75;22.58;;;3.20;20.90;;;;;;4805695;29;20197;-89
2023/01/25 05:49:58;;;;;;;37.07;22.10;;;3.20;1.00;;;;;;4812759;29;20181;-89
2023/01/25 05:52:24;;;;;;;41.27;23.43;;;3.20;1.00;;;;;;4823063;29;20214;-89
2023/01/25 05:54:49;;;;;;;34.87;22.03;;;3.20;99.90;;;;;;4824336;29;20201;-89
2023/01/25 05:57:15;;;;;;;39.70;22.77;;;3.20;99.90;;;;;;4824119;29;20665;-90
2023/01/25 05:59:41;;;;;;;42.23;23.73;;;3.20;99.90;;;;;;4823810;29;20205;-89
2023/01/25 06:02:06;;;;;;;34.40;21.30;;;3.30;69.40;;;;;;4821210;29;20482;-89
2023/01/25 06:04:32;;;;;;;34.03;21.43;;;3.30;22.50;;;;;;4824630;29;20186;-89
2023/01/25 06:06:57;;;;;;;37.93;21.70;;;3.30;36.10;;;;;;4810961;29;20285;-90
2023/01/25 06:09:23;;;;;;;42.83;24.13;;;3.40;1.00;;;;;;4823341;29;20705;-90
2023/01/25 06:11:49;;;;;;;40.50;22.93;;;3.30;1.00;;;;;;4823022;29;20194;-87
2023/01/25 06:14:14;;;;;;;39.20;21.70;;;3.30;1.00;;;;;;4823710;29;20470;-89
2023/01/25 06:16:40;;;;;;;39.10;21.47;;;3.30;1.00;;;;;;4824521;29;20238;-89
2023/01/25 06:19:07;;;;;;;32.00;20.20;;;3.30;1.00;;;;;;4806702;29;20261;-89
2023/01/25 06:21:36;;;;;;;41.30;22.45;;;3.30;36.40;;;;;;4824235;29;20197;-90
2023/01/25 06:24:03;;;;;;;41.05;24.77;;;3.30;80.10;;;;;;4825734;29;20263;-89
2023/01/25 06:26:29;;;;;;;34.83;22.27;;;3.40;99.90;;;;;;4823746;29;20186;-89
2023/01/25 06:28:54;;;;;;;37.13;21.93;;;3.40;28.60;;;;;;4809188;29;20216;-89
2023/01/25 06:31:20;;;;;;;38.23;22.70;;;3.40;1.00;;;;;;4812151;29;20190;-89
2023/01/25 06:33:50;;;;;;;42.70;24.70;;;3.40;1.00;;;;;;4819965;29;20252;-89
2023/01/25 06:36:17;;;;;;;37.38;23.13;;;3.30;1.00;;;;;;4811428;29;20193;-89
2023/01/25 06:38:46;;;;;;;37.97;22.33;;;3.30;1.00;;;;;;4807473;29;20196;-90
2023/01/25 06:41:12;;;;;;;36.40;22.67;;;3.30;1.00;;;;;;4822670;29;20701;-89
2023/01/25 06:43:37;;;;;;;36.33;22.00;;;3.30;1.00;;;;;;4822972;29;20250;-89
2023/01/25 06:46:05;;;;;;;38.67;22.30;;;3.20;1.00;;;;;;4823827;29;20325;-89
2023/01/25 06:48:31;;;;;;;40.40;23.08;;;3.20;99.90;;;;;;4812787;29;20704;-89
2023/01/25 06:50:59;;;;;;;34.60;21.10;;;3.30;99.90;;;;;;4823763;29;20190;-89
2023/01/25 06:53:26;;;;;;;39.17;23.77;;;3.30;99.90;;;;;;4806559;29;20733;-89
2023/01/25 06:56:00;;;;;;;39.20;22.40;;;3.30;99.90;;;;;;4822281;29;20196;-89
2023/01/25 06:58:26;;;;;;;35.85;21.15;;;3.30;99.90;;;;;;4812216;29;20281;-90
2023/01/25 07:00:52;;;;;;;39.40;23.05;;;3.40;99.90;;;;;;4823819;29;20194;-89
2023/01/25 07:03:18;;;;;;;36.97;22.30;;;3.40;80.40;;;;;;4822712;29;20796;-88
2023/01/25 07:05:45;;;;;;;40.80;22.00;;;3.30;1.00;;;;;;4824225;29;20217;-90
2023/01/25 07:08:10;;;;;;;41.15;23.80;;;3.20;1.00;;;;;;4823277;29;20686;-89
2023/01/25 07:10:36;;;;;;;35.77;22.57;;;3.10;1.00;;;;;;4821831;29;20197;-89
2023/01/25 07:13:02;;;;;;;41.80;23.00;;;3.00;99.90;;;;;;4812318;29;20209;-89
2023/01/25 07:15:27;;;;;;;42.47;24.20;;;3.00;1.00;;;;;;4820988;29;20196;-89
2023/01/25 07:17:53;;;;;;;44.30;24.20;;;3.00;1.00;;;;;;4824072;29;20566;-89
2023/01/25 07:20:19;;;;;;;39.80;22.93;;;3.10;1.00;;;;;;4820303;29;20189;-91
2023/01/25 07:22:44;;;;;;;40.43;21.80;;;3.10;99.90;;;;;;4812100;29;20210;-91
2023/01/25 07:25:10;;;;;;;40.93;22.00;;;3.20;99.90;;;;;;4816644;29;20185;-91
2023/01/25 07:27:35;;;;;;;40.00;22.90;;;3.20;1.00;;;;;;4809677;29;20190;-89
2023/01/25 07:30:20;;;;;;;36.43;22.20;;;3.20;1.00;;;;;;4821062;29;20247;-91
2023/01/25 07:32:46;;;;;;;41.95;22.35;;;3.30;99.90;;;;;;4803595;29;20233;-91
2023/01/25 07:35:11;;;;;;;41.63;22.60;;;3.30;99.90;;;;;;4820020;29;20214;-92
2023/01/25 07:37:37;;;;;;;39.10;22.43;;;3.40;99.90;;;;;;4813660;29;20204;-91
2023/01/25 07:40:03;;;;;;;42.90;23.20;;;3.40;59.50;;;;;;4809146;29;20186;-91
2023/01/25 07:42:28;;;;;;;41.73;21.60;;;3.50;99.90;;;;;;4806630;29;20210;-91
2023/01/25 07:44:54;;;;;;;38.10;23.07;;;3.50;3.20;;;;;;4822214;29;20454;-91
2023/01/25 07:47:20;;;;;;;36.20;21.90;;;3.60;1.00;;;;;;4806267;29;20713;-92
2023/01/25 07:50:03;;;;;;;40.20;23.73;;;3.50;1.00;;;;;;4807045;29;20625;-91
2023/01/25 07:52:29;;;;;;;44.15;25.08;;;3.50;99.90;;;;;;4812065;29;20236;-91
2023/01/25 07:54:54;;;;;;;41.13;24.90;;;3.50;99.90;;;;;;4811799;29;20350;-90
2023/01/25 07:57:20;;;;;;;40.20;24.90;;;3.50;99.90;;;;;;4813548;29;20194;-91
2023/01/25 07:59:48;;;;;;;44.13;25.73;;;3.50;99.90;;;;;;4805655;29;20190;-90
2023/01/25 08:02:14;;;;;;;43.50;25.55;;;3.40;1.00;;;;;;4808776;29;20189;-91
2023/01/25 08:04:44;;;;;;;40.97;24.80;;;3.40;99.90;;;;;;4817753;29;20200;-92
2023/01/25 08:07:10;;;;;;;39.63;23.05;;;3.40;99.90;;;;;;4820237;29;20236;-91
2023/01/25 08:09:38;;;;;;;39.17;22.13;;;3.40;1.00;;;;;;4821235;29;20209;-90
2023/01/25 08:12:05;;;;;;;42.85;23.73;;;3.40;1.00;;;;;;4808253;29;20197;-91
2023/01/25 08:14:33;;;;;;;41.40;25.00;;;3.40;1.00;;;;;;4805731;29;20574;-90
2023/01/25 08:16:59;;;;;;;40.63;22.27;;;3.50;1.00;;;;;;4803389;29;20659;-91
2023/01/25 08:19:25;;;;;;;41.30;24.80;;;3.50;1.00;;;;;;4824433;29;20213;-91
2023/01/25 08:21:51;;;;;;;37.63;23.23;;;3.50;99.90;;;;;;4827700;29;20608;-90
2023/01/25 08:24:17;;;;;;;44.92;26.45;;;3.50;99.90;;;;;;4807775;29;20214;-91
2023/01/25 08:26:56;;;;;;;43.50;24.97;;;3.40;21.80;;;;;;4813159;29;20193;-91
2023/01/25 08:29:22;;;;;;;39.65;24.15;;;3.20;99.90;;;;;;4807852;29;20562;-91
2023/01/25 08:31:48;;;;;;;42.47;24.70;;;3.20;99.90;;;;;;4805546;29;20201;-91
2023/01/25 08:34:14;;;;;;;44.53;25.33;;;3.20;1.00;;;;;;4803384;29;20205;-90
2023/01/25 08:36:39;;;;;;;40.00;23.60;;;3.20;1.00;;;;;;4809167;29;20198;-91
2023/01/25 08:39:07;;;;;;;46.50;25.77;;;3.20;1.00;;;;;;4803745;29;20214;-91
2023/01/25 08:41:34;;;;;;;42.03;25.85;;;3.30;99.90;;;;;;4816355;29;20185;-89
2023/01/25 08:43:59;;;;;;;44.10;24.80;;;3.40;99.90;;;;;;4816436;29;20222;-88
2023/01/25 08:49:18;;;;;;;43.72;24.02;;;3.50;1.00;;;;;;4811490;29;20363;-88
2023/01/25 08:51:45;;;;;;;41.53;24.20;;;3.50;1.00;;;;;;4821629;29;20276;-89
2023/01/25 08:54:19;;;;;;;40.17;24.83;;;3.50;99.90;;;;;;4808195;29;20210;-89
2023/01/25 08:56:44;;;;;;;43.65;23.80;;;3.50;99.90;;;;;;4820168;29;20225;-89
2023/01/25 08:59:11;;;;;;;35.70;22.70;;;3.50;99.90;;;;;;4815844;29;20276;-88
2023/01/25 09:01:37;;;;;;;49.38;24.73;;;3.50;99.90;;;;;;4819671;29;20204;-89
2023/01/25 09:04:02;;;;;;;47.23;24.60;;;3.60;99.90;;;;;;4820455;29;20213;-89
2023/01/25 09:06:28;;;;;;;40.80;23.63;;;3.60;99.90;;;;;;4806641;29;20212;-89
2023/01/25 09:08:54;;;;;;;49.33;26.43;;;3.60;99.90;;;;;;4806297;29;20808;-89
2023/01/25 09:11:21;;;;;;;47.60;26.27;;;3.60;71.70;;;;;;4821105;29;20243;-89
2023/01/25 09:13:48;;;;;;;48.70;26.05;;;3.50;1.00;;;;;;4820796;29;20300;-89
2023/01/25 09:16:16;;;;;;;53.45;28.55;;;3.50;21.40;;;;;;4806013;29;20204;-88
2023/01/25 09:18:43;;;;;;;50.33;26.05;;;3.50;99.90;;;;;;4818296;29;20202;-88
2023/01/25 09:21:12;;;;;;;45.65;24.17;;;3.50;99.90;;;;;;4820145;29;20213;-87
2023/01/25 09:23:37;;;;;;;47.60;24.00;;;3.50;99.90;;;;;;4820308;29;20217;-89
2023/01/25 09:26:03;;;;;;;46.77;26.13;;;3.50;69.20;;;;;;4820800;29;20197;-88
2023/01/25 09:28:30;;;;;;;45.90;26.00;;;3.50;1.30;;;;;;4820736;29;20992;-89
2023/01/25 09:30:58;;;;;;;51.58;27.25;;;3.50;99.90;;;;;;4819606;29;20243;-89
2023/01/25 09:33:25;;;;;;;46.03;24.83;;;3.50;99.90;;;;;;4809242;29;20213;-88
2023/01/25 09:35:51;;;;;;;46.40;26.02;;;3.50;99.90;;;;;;4818415;29;20185;-88
2023/01/25 09:38:16;;;;;;;46.23;24.23;;;3.50;99.90;;;;;;4820531;29;20209;-88
2023/01/25 09:40:51;;;;;;;50.17;25.67;;;3.50;99.90;;;;;;4819671;29;20201;-89
2023/01/25 09:43:39;;;;;;;49.15;24.85;;;3.50;99.90;;;;;;4817490;29;20259;-88
2023/01/25 09:46:35;;;;;;;58.28;30.58;;;3.50;99.90;;;;;;4815738;29;20225;-88
2023/01/25 09:49:33;;;;;;;47.65;26.17;;;3.50;99.90;;;;;;4819670;29;20210;-89
2023/01/25 09:52:17;;;;;;;53.78;32.80;;;3.50;44.60;;;;;;4797698;29;20228;-89
2023/01/25 09:55:01;;;;;;;47.45;25.75;;;3.50;17.40;;;;;;4801215;29;20629;-88
2023/01/25 09:57:39;;;;;;;51.30;26.67;;;3.50;15.20;;;;;;4804366;29;20193;-89
2023/01/25 10:00:17;;;;;;;50.78;27.55;;;3.50;16.60;;;;;;4802299;29;20558;-89
2023/01/25 10:03:08;;;;;;;48.92;26.17;;;3.50;20.10;;;;;;4824310;29;20308;-89
2023/01/25 10:05:46;;;;;;;41.63;22.95;;;3.50;59.00;;;;;;4814283;29;20205;-89
2023/01/25 10:08:59;;;;;;;50.97;25.58;;;3.50;99.90;;;;;;4828980;29;20698;-89
2023/01/25 10:11:33;;;;;;;41.00;23.05;;;3.50;99.90;;;;;;4815394;29;20189;-89
2023/01/25 10:14:08;;;;;;;41.50;23.10;;;3.60;99.90;;;;;;4825360;29;20210;-90
2023/01/25 10:16:52;;;;;;;50.28;25.33;;;3.60;99.90;;;;;;4816591;29;20193;-89
2023/01/25 10:19:47;;;;;;;44.60;23.67;;;3.70;99.90;;;;;;4820197;29;20212;-89
2023/01/25 10:22:28;;;;;;;42.45;22.77;;;3.70;99.90;;;;;;4810638;29;20728;-89
2023/01/25 10:25:23;;;;;;;41.70;22.08;;;3.70;1.00;;;;;;4809601;29;20280;-87
2023/01/25 10:28:35;;;;;;;40.08;21.88;;;3.80;1.00;;;;;;4797680;29;20611;-87
2023/01/25 10:31:12;;;;;;;44.90;24.08;;;3.80;99.90;;;;;;4793876;29;20224;-89
2023/01/25 10:33:42;;;;;;;44.53;24.05;;;3.80;99.90;;;;;;4813971;29;20220;-89
2023/01/25 10:36:17;;;;;;;43.90;23.40;;;3.90;99.90;;;;;;4802928;29;20197;-88
2023/01/25 10:38:45;;;;;;;48.03;24.90;;;3.90;1.00;;;;;;4821741;29;20189;-89
2023/01/25 10:41:44;;;;;;;48.00;23.27;;;3.90;99.90;;;;;;4821341;29;20951;-89
2023/01/25 10:44:30;;;;;;;44.20;22.67;;;3.90;99.90;;;;;;4792234;29;20230;-88
2023/01/25 10:47:03;;;;;;;45.88;22.73;;;3.90;99.90;;;;;;4821589;29;20197;-89
2023/01/25 10:49:46;;;;;;;44.60;22.67;;;3.90;46.80;;;;;;4808221;29;20344;-89
2023/01/25 10:52:25;;;;;;;52.38;24.10;;;3.90;1.00;;;;;;4815569;29;20194;-89
2023/01/25 10:55:18;;;;;;;42.08;21.10;;;3.90;1.00;;;;;;4807159;29;20238;-88
2023/01/25 10:57:56;;;;;;;44.47;22.20;;;3.80;1.00;;;;;;4810385;29;20269;-88
2023/01/25 11:00:54;;;;;;;46.55;23.63;;;3.80;32.80;;;;;;4808967;29;20197;-88
2023/01/25 11:03:20;;;;;;;33.92;19.20;;;3.80;92.60;;;;;;4801779;29;20217;-88
2023/01/25 11:05:56;;;;;;;38.50;20.10;;;3.90;99.90;;;;;;4816681;29;20185;-88
2023/01/25 11:08:37;;;;;;;51.95;23.67;;;3.90;99.90;;;;;;4809941;29;20213;-88
2023/01/25 11:11:12;;;;;;;38.00;22.02;;;3.90;99.90;;;;;;4802647;29;20270;-89
2023/01/25 11:13:40;;;;;;;39.97;22.17;;;4.00;19.10;;;;;;4805636;29;20791;-88
2023/01/25 11:16:29;;;;;;;43.75;22.75;;;4.00;1.00;;;;;;4822126;29;20741;-89
2023/01/25 11:18:56;;;;;;;47.75;25.90;;;4.00;1.00;;;;;;4803339;29;20205;-88
2023/01/25 11:21:27;;;;;;;41.28;22.55;;;3.80;99.90;;;;;;4820375;29;20197;-88
2023/01/25 11:24:08;;;;;;;46.45;25.02;;;3.70;99.90;;;;;;4821820;29;20209;-88
2023/01/25 11:26:40;;;;;;;45.03;23.63;;;3.70;1.00;;;;;;4818726;29;20197;-87
2023/01/25 11:29:09;;;;;;;49.28;24.67;;;3.70;1.60;;;;;;4812861;29;20217;-86
2023/01/25 11:31:35;;;;;;;42.70;21.48;;;3.70;19.30;;;;;;4822748;29;20284;-88
2023/01/25 11:34:00;;;;;;;42.90;22.77;;;3.70;82.30;;;;;;4823569;29;20280;-88
2023/01/25 11:36:29;;;;;;;46.03;22.83;;;3.70;1.00;;;;;;4806099;29;20713;-88
2023/01/25 11:39:22;;;;;;;50.88;23.45;;;3.60;1.00;;;;;;4818635;29;20212;-88
2023/01/25 11:42:18;;;;;;;52.30;25.40;;;3.60;99.90;;;;;;4821391;29;20197;-88
2023/01/25 11:44:59;;;;;;;46.08;23.40;;;3.50;99.90;;;;;;4803738;29;20190;-88
2023/01/25 11:47:48;;;;;;;62.78;24.67;;;3.60;1.00;;;;;;4821070;29;20650;-88
2023/01/25 11:50:22;;;;;;;55.13;24.85;;;3.60;99.90;;;;;;4817390;29;20759;-89
2023/01/25 11:53:31;;;;;;;64.90;24.88;;;3.50;99.90;;;;;;4820626;29;20209;-89
2023/01/25 11:56:49;;;;;;;;;;;;;;;;;;;;;
2023/01/25 11:59:36;;;;;;;43.85;23.20;;;3.50;1.00;;;;;;4820883;29;20196;-88
2023/01/25 12:02:53;;;;;;;45.67;22.15;;;3.60;1.00;;;;;;4804875;29;20190;-88
2023/01/25 12:05:54;;;;;;;44.67;21.52;;;3.70;1.00;;;;;;4814531;29;20194;-88
2023/01/25 12:08:44;;;;;;;36.78;19.30;;;3.70;1.00;;;;;;4808937;29;20213;-88
2023/01/25 12:11:32;;;;;;;45.42;21.88;;;3.60;99.90;;;;;;4809078;29;20189;-87
2023/01/25 12:14:14;;;;;;;39.45;19.67;;;3.60;99.90;;;;;;4804027;29;20263;-88
2023/01/25 12:17:15;;;;;;;42.50;20.20;;;3.60;99.90;;;;;;4828258;29;20210;-87
2023/01/25 12:20:10;;;;;;;;;;;;;;;;;;;;;
2023/01/25 12:23:07;;;;;;;37.80;20.17;;;3.60;99.90;;;;;;4818485;29;20221;-88
2023/01/25 12:33:42;;;;;;;36.00;19.15;;;3.70;1.00;;;;;;4803249;29;20595;-88
2023/01/25 12:36:21;;;;;;;41.13;19.33;;;3.70;1.00;;;;;;4753948;29;20199;-88
2023/01/25 12:39:17;;;;;;;40.13;21.38;;;3.80;99.90;;;;;;4822905;29;20192;-87
2023/01/25 12:42:03;;;;;;;45.72;25.02;;;3.80;99.90;;;;;;4798786;29;20605;-87
2023/01/25 12:48:57;;;;;;;49.53;28.50;;;3.80;1.00;;;;;;4825958;29;20224;-87
2023/01/25 12:51:34;;;;;;;34.67;19.50;;;3.80;1.00;;;;;;4772884;29;20695;-89
2023/01/25 12:54:05;;;;;;;34.50;17.70;;;3.80;1.00;;;;;;4805958;29;20629;-88
2023/01/25 12:57:01;;;;;;;45.63;21.15;;;3.80;1.00;;;;;;4804366;29;20200;-88
2023/01/25 12:59:54;;;;;;;38.85;21.25;;;3.80;1.00;;;;;;4795273;29;20201;-88
2023/01/25 13:02:58;;;;;;;41.30;20.35;;;3.80;1.00;;;;;;4815973;29;20739;-88
2023/01/25 13:05:39;;;;;;;41.03;20.88;;;3.70;1.00;;;;;;4820534;29;20246;-89
2023/01/25 13:08:29;;;;;;;36.35;21.40;;;3.70;1.00;;;;;;4817436;29;20190;-88
2023/01/25 13:11:19;;;;;;;41.70;23.27;;;3.70;1.00;;;;;;4806209;29;20563;-88
2023/01/25 13:13:45;;;;;;;39.70;21.60;;;3.70;1.00;;;;;;4813538;29;20213;-88
2023/01/25 13:16:53;;;;;;;42.37;21.60;;;3.60;1.00;;;;;;4805721;29;20659;-88
2023/01/25 13:19:37;;;;;;;35.25;18.30;;;3.70;1.00;;;;;;4804160;29;20234;-88
2023/01/25 13:22:03;;;;;;;39.53;19.52;;;3.70;1.00;;;;;;4804258;29;20197;-87
2023/01/25 13:25:18;;;;;;;41.65;19.05;;;3.70;1.00;;;;;;4821871;29;20268;-87